首页
METAR-TAF:

METAR-TAF

机场 :

杰克逊维尔国际机场

杰克逊维尔, 佛罗里达州, 美国

纬度: 30-29-40N, 经度: 081-41-36W, 海拔: 9米

当前天气观测

该预报发布于11分钟前的22:50 UTC
风速17节,风向东北,有时为21节阵风
温度 12°C
湿度 94%
气压 1018 hPa
能見度: 2.4公里
散云层高于700英尺
散云层高于1000英尺
阴天层高于1700英尺
雨, 轻雾

METAR: KJAX 022250Z 05017G21KT 1 1/2SM R08/0300VP6000FT RA BR SCT007 SCT010 OVC017 12/11 A3006 RMK AO2 P0010 $

时间: 18:01 (23:01 UTC)

预报

该预报发布于3小时和18分钟前的19:43 UTC
预报有效从02日的 20点(UTC)到 03日的 18点(UTC)
风速12节,风向东北,有时为18节阵风
能見度: 6.4公里
多云层高于700英尺
阴天层高于1500英尺
小雨, 轻雾
从 03日的 0600点(UTC)
风速10节,风向西南
能見度: 9.7公里
散云层高于700英尺
阴天层高于2000英尺
阵雨, 轻雾
从 03日的 1200点(UTC)
风速12节,风向西转西南
能見度: 9.7公里
多云层高于2500英尺
阴天层高于7000英尺
轻雾, 附近有阵雨
从 03日的 1400点(UTC)
风速13节,风向西北,有时为20节阵风
能見度: 10公里
散云层高于800英尺
阴天层高于2000英尺

TAF: KJAX 021943Z 0220/0318 05012G18KT 4SM -RA BR BKN007 OVC015 FM030600 22010KT 6SM SHRA BR SCT007 OVC020 WS020/23040KT FM031200 25012KT 6SM BR VCSH BKN025 OVC070 FM031400 32013G20KT P6SM SCT008 OVC020

超过4000个机场的气象观测和天气预报(METAR&TAF报告)。

可查询的气象台以黄色和红色小点在地图上表示。

将鼠标移到小点上方,可查看气象台名称。

然后点击查看天气观测和预报。

如需切换地图:点击带黑十字的绿色按钮放大地图;点击带横线的绿色按钮缩小地图;或者点击绿色箭头查看邻近地区的地图。


METAR-TAF: